Time;durP1;ratioP1;P1;durP2;ratioP2;P2;SDS_P1;SDS_P2;PMS_P1;PMS_P2;Temp;Humidity;BMP_temperature;BMP_pressure;BME280_temperature;BME280_humidity;BME280_pressure;Samples;Min_cycle;Max_cycle;Signal;HPM_P1;HPM_P2
2022/09/22 00:03:03;;;;;;;2.33;1.85;;;16.80;73.80;;;;;;10856951;32;20429;-73
2022/09/22 00:09:07;;;;;;;2.47;1.70;;;16.70;73.80;;;;;;10869024;32;20050;-73
2022/09/22 00:15:10;;;;;;;2.70;1.80;;;16.60;73.90;;;;;;10866808;32;20019;-73
2022/09/22 00:21:19;;;;;;;3.47;2.30;;;16.60;73.80;;;;;;10865328;32;20019;-73
2022/09/22 00:27:21;;;;;;;;;;;16.70;73.60;;;;;;10869493;32;20028;-73
2022/09/22 00:33:23;;;;;;;1.90;1.75;;;16.60;73.70;;;;;;10855718;32;19930;-73
2022/09/22 00:39:26;;;;;;;2.47;2.10;;;16.50;73.90;;;;;;10868684;32;20023;-73
2022/09/22 00:45:28;;;;;;;6.25;2.37;;;16.40;74.20;;;;;;10868611;32;20031;-73
2022/09/22 00:51:37;;;;;;;2.92;2.03;;;16.30;74.30;;;;;;10868292;32;20027;-73
2022/09/22 00:57:41;;;;;;;1.77;1.55;;;16.20;74.30;;;;;;10852432;32;20070;-73
2022/09/22 01:03:44;;;;;;;4.40;2.70;;;16.10;74.60;;;;;;10867924;32;20054;-73
2022/09/22 01:09:45;;;;;;;3.35;2.45;;;16.00;74.60;;;;;;10867708;32;20085;-73
2022/09/22 01:16:21;;;;;;;2.58;1.83;;;16.00;74.70;;;;;;10863400;32;20054;-73
2022/09/22 01:22:48;;;;;;;2.72;1.70;;;16.00;74.90;;;;;;10867403;32;20438;-73
2022/09/22 01:29:16;;;;;;;2.40;1.85;;;16.00;74.80;;;;;;10866320;32;20055;-73
2022/09/22 01:35:27;;;;;;;3.28;2.12;;;16.00;74.90;;;;;;10867130;32;20023;-73
2022/09/22 01:41:41;;;;;;;2.25;1.65;;;16.00;74.90;;;;;;10864914;32;20053;-73
2022/09/22 01:47:57;;;;;;;1.95;1.40;;;16.00;75.00;;;;;;10866837;32;20397;-73
2022/09/22 01:54:17;;;;;;;2.05;1.75;;;16.00;75.10;;;;;;10849235;32;20019;-73
2022/09/22 02:00:22;;;;;;;1.70;1.33;;;16.10;75.20;;;;;;10866418;32;20035;-73
2022/09/22 02:06:36;;;;;;;1.45;1.27;;;16.20;75.20;;;;;;10862781;32;20327;-73
2022/09/22 02:12:38;;;;;;;1.42;1.17;;;16.20;75.20;;;;;;10862592;32;20069;-74
2022/09/22 02:18:52;;;;;;;1.77;1.62;;;16.20;75.10;;;;;;10866458;32;20331;-73
2022/09/22 02:24:54;;;;;;;2.50;1.58;;;16.10;75.20;;;;;;10872716;32;20036;-73
2022/09/22 02:30:59;;;;;;;1.83;1.23;;;16.00;75.40;;;;;;10873421;32;20120;-73
2022/09/22 02:37:20;;;;;;;1.37;1.25;;;15.90;75.30;;;;;;10869116;32;20328;-73
2022/09/22 02:43:39;;;;;;;1.80;1.27;;;15.80;75.40;;;;;;10868717;32;20053;-73
2022/09/22 02:49:42;;;;;;;1.10;0.80;;;15.80;75.40;;;;;;10870477;32;20046;-73
2022/09/22 02:55:45;;;;;;;1.33;1.20;;;15.70;75.40;;;;;;10872571;32;20297;-73
2022/09/22 03:01:48;;;;;;;1.48;0.95;;;15.70;75.60;;;;;;10872359;32;20031;-73
2022/09/22 03:07:59;;;;;;;1.95;1.60;;;15.70;75.60;;;;;;10872007;32;20020;-73
2022/09/22 03:14:01;;;;;;;1.20;1.10;;;15.70;75.70;;;;;;10871813;32;20031;-73
2022/09/22 03:20:28;;;;;;;2.10;1.37;;;15.70;75.70;;;;;;10871630;32;20024;-73
2022/09/22 03:26:30;;;;;;;2.00;1.45;;;15.70;75.70;;;;;;10867101;32;20426;-73
2022/09/22 03:32:35;;;;;;;0.98;0.93;;;15.80;76.00;;;;;;10869682;32;20024;-73
2022/09/22 03:38:36;;;;;;;2.42;1.77;;;15.80;76.40;;;;;;10869807;32;20085;-73
2022/09/22 03:44:48;;;;;;;1.90;1.40;;;15.90;76.60;;;;;;10870021;32;20031;-73
2022/09/22 03:50:51;;;;;;;1.25;1.15;;;16.00;76.60;;;;;;10871223;32;20049;-74
2022/09/22 03:56:53;;;;;;;2.12;1.15;;;16.00;76.70;;;;;;10868403;32;20012;-73
2022/09/22 04:02:56;;;;;;;1.37;1.15;;;16.00;76.40;;;;;;10866027;32;20055;-73
2022/09/22 04:09:00;;;;;;;1.42;1.10;;;15.90;76.50;;;;;;10870118;32;20028;-73
2022/09/22 04:15:02;;;;;;;2.72;1.42;;;15.90;76.30;;;;;;10869710;32;20050;-73
2022/09/22 04:21:04;;;;;;;1.23;1.12;;;15.90;76.20;;;;;;10856292;32;20102;-73
2022/09/22 04:27:06;;;;;;;1.65;1.48;;;15.80;76.20;;;;;;10868708;32;20047;-73
2022/09/22 04:33:09;;;;;;;1.58;1.48;;;15.80;76.50;;;;;;10869090;32;20293;-73
2022/09/22 04:39:11;;;;;;;3.12;1.40;;;15.80;77.10;;;;;;10868982;32;20050;-73
2022/09/22 04:45:15;;;;;;;1.70;1.33;;;15.80;77.40;;;;;;10864387;32;20139;-74
2022/09/22 04:51:17;;;;;;;4.10;1.73;;;15.70;77.10;;;;;;10868387;32;20075;-73
2022/09/22 04:57:47;;;;;;;1.85;1.55;;;15.70;77.10;;;;;;10864658;32;20027;-73
2022/09/22 05:03:52;;;;;;;1.62;1.30;;;15.80;77.10;;;;;;10867969;32;20070;-73
2022/09/22 05:09:54;;;;;;;1.33;1.10;;;15.80;77.00;;;;;;10867739;32;20051;-73
2022/09/22 05:15:56;;;;;;;3.15;1.75;;;15.80;76.90;;;;;;10867485;32;20042;-73
2022/09/22 05:21:57;;;;;;;2.62;1.40;;;15.80;77.00;;;;;;10854329;32;20309;-73
2022/09/22 05:28:19;;;;;;;2.20;1.90;;;15.90;77.20;;;;;;10863420;32;20065;-74
2022/09/22 05:34:21;;;;;;;1.00;0.90;;;15.90;77.10;;;;;;10867039;32;20355;-73
2022/09/22 05:40:25;;;;;;;1.62;1.10;;;15.90;77.30;;;;;;10866742;32;20318;-73
2022/09/22 05:46:27;;;;;;;0.95;0.95;;;16.00;77.40;;;;;;10849713;32;20063;-73
2022/09/22 05:52:29;;;;;;;4.50;1.35;;;16.00;77.50;;;;;;10862618;32;20042;-73
2022/09/22 05:58:31;;;;;;;1.35;1.25;;;16.00;77.70;;;;;;10862298;32;20019;-73
2022/09/22 06:04:34;;;;;;;2.17;1.37;;;16.00;77.60;;;;;;10863617;32;20035;-74
2022/09/22 06:10:37;;;;;;;2.28;1.40;;;15.90;77.70;;;;;;10866151;32;20019;-75
2022/09/22 06:16:39;;;;;;;1.05;1.00;;;16.00;77.40;;;;;;10816305;27;20420;-75
2022/09/22 06:22:43;;;;;;;1.33;1.20;;;16.00;77.70;;;;;;10842536;32;20023;-75
2022/09/22 06:28:45;;;;;;;2.08;1.35;;;16.00;77.80;;;;;;10849877;32;20016;-74
2022/09/22 06:34:48;;;;;;;1.65;1.50;;;16.00;77.70;;;;;;10866281;32;20292;-74
2022/09/22 06:40:50;;;;;;;1.23;1.08;;;16.00;77.70;;;;;;10861172;32;20074;-73
2022/09/22 06:46:52;;;;;;;1.40;1.23;;;16.00;77.60;;;;;;10820057;32;20036;-74
2022/09/22 06:52:58;;;;;;;1.77;1.40;;;16.00;77.60;;;;;;10828275;33;20042;-74
2022/09/22 06:59:00;;;;;;;2.78;1.00;;;16.10;77.90;;;;;;10815502;33;20340;-75
2022/09/22 07:05:02;;;;;;;2.67;1.40;;;16.20;77.70;;;;;;10826664;32;20317;-75
2022/09/22 07:11:07;;;;;;;3.17;1.77;;;16.20;77.10;;;;;;10835142;32;20400;-75
2022/09/22 07:17:22;;;;;;;4.97;1.30;;;16.20;77.00;;;;;;10834986;32;20033;-74
2022/09/22 07:23:24;;;;;;;2.85;1.62;;;16.30;76.90;;;;;;10834686;32;20431;-74
2022/09/22 07:29:27;;;;;;;2.12;1.58;;;16.30;76.30;;;;;;10833272;32;20046;-74
2022/09/22 07:35:30;;;;;;;3.33;1.60;;;16.30;75.90;;;;;;10829902;33;20028;-75
2022/09/22 07:41:40;;;;;;;4.55;2.03;;;16.30;75.60;;;;;;10832911;32;20384;-75
2022/09/22 07:54:07;;;;;;;2.15;1.52;;;16.40;75.20;;;;;;10829391;32;20020;-75
2022/09/22 08:00:10;;;;;;;4.20;2.03;;;16.40;75.40;;;;;;10829211;33;20399;-75
2022/09/22 08:06:15;;;;;;;2.08;1.73;;;16.50;75.60;;;;;;10833013;32;20028;-74
2022/09/22 08:12:17;;;;;;;5.25;2.30;;;16.60;75.40;;;;;;10832854;32;20059;-75
2022/09/22 08:18:20;;;;;;;2.67;1.45;;;16.80;75.40;;;;;;10830478;32;20363;-75
2022/09/22 08:24:22;;;;;;;4.95;2.53;;;16.80;75.30;;;;;;10412272;33;11981991;-75
2022/09/22 08:30:24;;;;;;;1.90;1.48;;;16.80;75.20;;;;;;10755141;33;20307;-76
2022/09/22 08:36:29;;;;;;;1.30;1.20;;;16.80;75.20;;;;;;10755364;33;20059;-75
2022/09/22 08:42:32;;;;;;;2.10;1.73;;;16.80;75.00;;;;;;10755252;33;20062;-75
2022/09/22 08:54:58;;;;;;;1.73;1.52;;;16.90;75.00;;;;;;10829322;32;20050;-75
2022/09/22 09:01:21;;;;;;;2.50;1.60;;;17.00;75.00;;;;;;10831320;32;20054;-75
2022/09/22 09:07:32;;;;;;;2.17;1.30;;;17.10;74.20;;;;;;10830963;32;20031;-75
2022/09/22 09:14:00;;;;;;;2.25;1.80;;;17.30;73.90;;;;;;10830745;32;20058;-76
2022/09/22 09:20:12;;;;;;;2.53;1.65;;;17.50;73.80;;;;;;10815649;32;20047;-76
2022/09/22 09:26:17;;;;;;;4.80;1.40;;;17.50;73.70;;;;;;10830170;32;20020;-77
2022/09/22 09:32:45;;;;;;;1.67;1.55;;;17.70;73.30;;;;;;10825550;32;20430;-77
2022/09/22 09:38:53;;;;;;;1.70;1.37;;;17.90;72.50;;;;;;10717004;33;20033;-74
2022/09/22 09:45:01;;;;;;;4.32;1.35;;;18.10;72.00;;;;;;10700637;33;20110;-73
2022/09/22 09:51:04;;;;;;;1.70;1.37;;;18.30;71.50;;;;;;10715923;33;20059;-74
2022/09/22 09:57:14;;;;;;;2.30;1.42;;;18.40;71.60;;;;;;10711336;33;20022;-74
2022/09/22 10:03:46;;;;;;;1.10;1.00;;;18.60;70.90;;;;;;10716422;33;20334;-74
2022/09/22 10:09:50;;;;;;;2.35;1.58;;;18.80;69.90;;;;;;10711712;33;20076;-74
2022/09/22 10:16:04;;;;;;;1.20;1.10;;;19.00;69.50;;;;;;10792018;33;20016;-74
2022/09/22 10:22:24;;;;;;;0.80;0.80;;;19.10;68.30;;;;;;10826451;33;20044;-74
2022/09/22 10:28:26;;;;;;;1.40;0.95;;;19.20;67.90;;;;;;10826026;33;20023;-75
2022/09/22 10:34:31;;;;;;;1.45;0.88;;;19.30;67.90;;;;;;10829132;33;20064;-75
2022/09/22 10:41:06;;;;;;;1.95;0.82;;;19.50;67.00;;;;;;10825976;32;20062;-74
2022/09/22 10:47:58;;;;;;;0.95;0.70;;;19.50;66.80;;;;;;10686622;33;20132;-74
2022/09/22 10:54:19;;;;;;;1.27;0.88;;;19.30;65.90;;;;;;10685793;33;20029;-74
2022/09/22 11:00:24;;;;;;;0.90;0.77;;;18.80;65.70;;;;;;10683360;33;20326;-74
2022/09/22 11:13:43;;;;;;;0.88;0.82;;;18.50;66.90;;;;;;10682428;33;20318;-74
2022/09/22 11:20:04;;;;;;;0.93;0.90;;;18.50;67.00;;;;;;10737337;33;20023;-76
2022/09/22 11:26:36;;;;;;;1.52;0.82;;;19.20;66.10;;;;;;10833100;32;20103;-75
2022/09/22 11:33:03;;;;;;;0.60;0.60;;;20.00;63.80;;;;;;10834610;32;20012;-73
2022/09/22 11:39:45;;;;;;;0.57;0.57;;;20.50;62.60;;;;;;10832613;32;20024;-75
2022/09/22 11:46:15;;;;;;;1.85;0.82;;;20.50;61.80;;;;;;10716687;33;20465;-75
2022/09/22 11:52:52;;;;;;;1.15;1.00;;;19.90;62.80;;;;;;10718908;33;20056;-75
2022/09/22 11:59:00;;;;;;;0.60;0.60;;;19.50;63.80;;;;;;10720102;33;20033;-74
2022/09/22 12:05:19;;;;;;;0.95;0.88;;;19.80;63.70;;;;;;10715634;33;20067;-75
2022/09/22 12:11:26;;;;;;;0.70;0.70;;;20.00;62.90;;;;;;10715578;33;20076;-75
2022/09/22 12:17:40;;;;;;;1.05;0.60;;;19.80;63.00;;;;;;10738036;32;20058;-75
2022/09/22 12:23:47;;;;;;;2.03;1.20;;;19.50;63.70;;;;;;10828188;33;20063;-75
2022/09/22 12:30:03;;;;;;;0.65;0.65;;;19.30;64.00;;;;;;10832207;32;20023;-75
2022/09/22 12:36:06;;;;;;;1.33;0.82;;;19.30;63.40;;;;;;10830374;32;20074;-75
2022/09/22 12:42:27;;;;;;;2.03;1.35;;;19.50;62.10;;;;;;10817287;32;20040;-75
2022/09/22 12:48:34;;;;;;;0.85;0.82;;;19.60;61.60;;;;;;10829273;32;20033;-75
2022/09/22 12:55:14;;;;;;;0.70;0.70;;;19.40;61.50;;;;;;10828760;32;20058;-74
2022/09/22 13:01:31;;;;;;;1.02;0.90;;;19.60;61.10;;;;;;10827832;32;20062;-76
2022/09/22 13:07:43;;;;;;;2.30;0.90;;;19.80;60.70;;;;;;10830858;32;20019;-74
2022/09/22 13:13:49;;;;;;;1.92;1.12;;;19.80;60.60;;;;;;10830814;32;20055;-75
2022/09/22 13:19:55;;;;;;;1.15;0.90;;;19.90;60.20;;;;;;10830609;32;20054;-75
2022/09/22 13:26:14;;;;;;;2.17;1.17;;;20.00;60.00;;;;;;10828393;32;20036;-75
2022/09/22 13:32:25;;;;;;;1.10;0.93;;;20.00;59.60;;;;;;10829726;32;20028;-76
2022/09/22 13:38:29;;;;;;;2.15;0.85;;;20.10;60.10;;;;;;10830122;32;20055;-76
2022/09/22 13:44:33;;;;;;;3.40;0.90;;;20.10;60.50;;;;;;10829906;32;20024;-75
2022/09/22 13:50:47;;;;;;;1.75;1.33;;;20.10;60.20;;;;;;10829944;32;20027;-77
2022/09/22 13:56:49;;;;;;;0.65;0.65;;;20.20;60.50;;;;;;10828952;32;20046;-76
2022/09/22 14:02:56;;;;;;;1.90;0.62;;;20.20;60.10;;;;;;10829558;33;20028;-76
2022/09/22 14:09:00;;;;;;;2.37;1.12;;;20.30;59.80;;;;;;10829693;33;20447;-76
2022/09/22 14:15:33;;;;;;;0.75;0.60;;;20.30;59.10;;;;;;10856584;27;20031;-77
2022/09/22 14:22:00;;;;;;;1.12;1.00;;;20.50;59.20;;;;;;10873987;32;20024;-75
2022/09/22 14:28:03;;;;;;;1.55;1.23;;;20.50;58.50;;;;;;10873815;32;20020;-76
2022/09/22 14:34:08;;;;;;;2.17;1.37;;;20.60;58.80;;;;;;10873412;32;20046;-77
2022/09/22 14:40:20;;;;;;;3.47;0.90;;;20.60;58.20;;;;;;10875086;32;20027;-76
2022/09/22 14:46:40;;;;;;;0.80;0.80;;;20.60;58.20;;;;;;10859892;32;20024;-75
2022/09/22 14:53:34;;;;;;;1.90;0.77;;;20.60;58.50;;;;;;10859724;32;20027;-75
2022/09/22 15:06:20;;;;;;;4.80;1.10;;;21.00;57.30;;;;;;10722387;33;20094;-72
2022/09/22 15:12:42;;;;;;;0.95;0.90;;;21.30;56.40;;;;;;10721191;33;20064;-72
2022/09/22 15:18:47;;;;;;;1.62;1.30;;;21.30;56.50;;;;;;10721686;33;20017;-72
2022/09/22 15:24:51;;;;;;;1.52;0.90;;;21.70;55.40;;;;;;10721150;33;20040;-72
2022/09/22 15:30:53;;;;;;;0.68;0.68;;;22.60;53.10;;;;;;10740936;32;20324;-73
2022/09/22 15:36:56;;;;;;;1.37;1.00;;;23.40;51.40;;;;;;10871117;32;20020;-72
2022/09/22 15:43:05;;;;;;;1.95;0.82;;;23.90;51.50;;;;;;10857652;32;20059;-77
2022/09/22 15:49:25;;;;;;;0.60;0.60;;;23.40;53.10;;;;;;10850865;32;20031;-77
2022/09/22 15:55:27;;;;;;;2.92;0.98;;;22.60;54.80;;;;;;10867478;32;20020;-77
2022/09/22 16:01:29;;;;;;;1.65;0.98;;;22.30;56.00;;;;;;10865989;32;20213;-77
2022/09/22 16:07:47;;;;;;;6.70;2.92;;;22.50;56.50;;;;;;10866505;32;20042;-76
2022/09/22 16:13:49;;;;;;;2.45;1.17;;;22.80;56.20;;;;;;10854472;32;20074;-76
2022/09/22 16:19:51;;;;;;;0.70;0.70;;;23.30;56.20;;;;;;10865395;32;20434;-76
2022/09/22 16:25:54;;;;;;;0.75;0.40;;;23.70;55.80;;;;;;10869295;32;20019;-72
2022/09/22 16:31:56;;;;;;;0.77;0.75;;;22.90;56.90;;;;;;10867913;32;20423;-72
2022/09/22 16:37:58;;;;;;;4.40;0.77;;;21.80;59.30;;;;;;10829245;32;20050;-71
2022/09/22 16:44:02;;;;;;;0.70;0.70;;;21.30;60.10;;;;;;10848280;32;20035;-71
2022/09/22 16:50:26;;;;;;;1.92;1.15;;;20.80;60.40;;;;;;10831668;32;20016;-71
2022/09/22 16:56:30;;;;;;;0.98;0.85;;;20.50;60.50;;;;;;10832249;32;20016;-71
2022/09/22 17:02:32;;;;;;;0.60;0.60;;;20.30;60.70;;;;;;10818588;32;20054;-71
2022/09/22 17:08:55;;;;;;;1.20;0.93;;;20.10;60.90;;;;;;10830935;32;20019;-71
2022/09/22 17:14:58;;;;;;;0.85;0.68;;;19.90;61.40;;;;;;10829560;32;20321;-71
2022/09/22 17:21:00;;;;;;;1.27;1.00;;;19.70;62.90;;;;;;10830914;32;20046;-71
2022/09/22 17:27:04;;;;;;;0.60;0.60;;;19.50;63.00;;;;;;10830377;32;20032;-71
2022/09/22 17:33:07;;;;;;;1.73;1.37;;;19.40;63.00;;;;;;10830470;32;20016;-71
2022/09/22 17:39:09;;;;;;;3.33;0.98;;;19.30;63.20;;;;;;10829355;32;20431;-71
2022/09/22 17:45:11;;;;;;;0.80;0.80;;;19.20;63.50;;;;;;10830082;32;20027;-71
2022/09/22 17:58:12;;;;;;;0.90;0.90;;;18.80;65.80;;;;;;10829835;32;20028;-71
2022/09/22 18:04:49;;;;;;;1.58;1.05;;;18.70;66.60;;;;;;10829884;33;20012;-71
2022/09/22 18:11:16;;;;;;;1.12;1.08;;;18.70;66.70;;;;;;10826975;33;20024;-71
2022/09/22 18:17:22;;;;;;;1.27;1.15;;;18.60;66.80;;;;;;10829635;33;20043;-72
2022/09/22 18:23:24;;;;;;;1.52;1.23;;;18.50;67.10;;;;;;10816317;33;20404;-71
2022/09/22 18:29:26;;;;;;;1.30;1.20;;;18.50;67.50;;;;;;10816110;33;20036;-71
2022/09/22 18:35:30;;;;;;;6.32;1.33;;;18.40;68.40;;;;;;10815832;33;20340;-71
2022/09/22 18:41:33;;;;;;;2.95;1.08;;;18.30;69.10;;;;;;10829131;33;20051;-71
2022/09/22 18:47:39;;;;;;;1.62;1.30;;;18.30;68.90;;;;;;10815930;33;20051;-71
2022/09/22 18:53:42;;;;;;;1.45;1.23;;;18.30;68.80;;;;;;10811982;33;20028;-71
2022/09/22 18:59:44;;;;;;;1.87;1.52;;;18.20;68.80;;;;;;10828905;33;20050;-71
2022/09/22 19:05:46;;;;;;;5.78;2.30;;;18.00;69.00;;;;;;10830729;32;20324;-71
2022/09/22 19:11:49;;;;;;;2.28;1.35;;;18.00;69.10;;;;;;10835335;32;20012;-71
2022/09/22 19:17:52;;;;;;;1.73;1.40;;;17.80;69.40;;;;;;10822089;32;20348;-71
2022/09/22 19:23:55;;;;;;;1.50;1.40;;;17.70;69.60;;;;;;10831549;32;20352;-71
2022/09/22 19:29:57;;;;;;;1.48;1.37;;;17.80;69.90;;;;;;10820015;32;20047;-71
2022/09/22 19:36:01;;;;;;;3.03;1.92;;;17.70;70.50;;;;;;10834315;32;20196;-71
2022/09/22 19:42:03;;;;;;;2.00;1.60;;;17.70;71.10;;;;;;10834166;32;20327;-71
2022/09/22 19:48:05;;;;;;;3.10;2.10;;;17.70;71.00;;;;;;10834191;32;20393;-71
2022/09/22 19:54:07;;;;;;;2.72;2.08;;;17.60;70.80;;;;;;10833909;32;20353;-71
2022/09/22 20:00:16;;;;;;;1.85;1.73;;;17.60;70.80;;;;;;10833647;32;20062;-71
2022/09/22 20:06:28;;;;;;;;;;;17.40;71.20;;;;;;10833603;32;20024;-71
2022/09/22 20:12:30;;;;;;;1.70;1.45;;;17.30;71.40;;;;;;10832632;32;19923;-71
2022/09/22 20:18:33;;;;;;;1.70;1.60;;;17.20;71.80;;;;;;10832952;32;20381;-71
2022/09/22 20:24:35;;;;;;;1.40;1.10;;;17.30;71.50;;;;;;10819494;32;20035;-71
2022/09/22 20:31:10;;;;;;;8.75;2.78;;;17.30;71.60;;;;;;10832439;32;20047;-71
2022/09/22 20:37:27;;;;;;;1.60;1.30;;;17.20;71.40;;;;;;10832360;32;20054;-71
2022/09/22 20:43:29;;;;;;;3.37;1.92;;;17.20;71.70;;;;;;10831991;32;20024;-71
2022/09/22 20:49:33;;;;;;;2.92;2.15;;;17.00;72.00;;;;;;10831755;32;20050;-71
2022/09/22 20:55:37;;;;;;;2.72;1.77;;;16.80;72.30;;;;;;10831600;32;20036;-71
2022/09/22 21:01:39;;;;;;;3.20;2.28;;;16.70;72.60;;;;;;10831390;32;20078;-71
2022/09/22 21:07:41;;;;;;;3.70;2.60;;;16.70;72.70;;;;;;10831277;32;20024;-71
2022/09/22 21:13:43;;;;;;;4.32;2.97;;;16.70;72.70;;;;;;10830955;32;20036;-71
2022/09/22 21:19:45;;;;;;;3.42;2.75;;;16.70;72.70;;;;;;10830046;32;20046;-71
2022/09/22 21:26:04;;;;;;;7.03;4.50;;;16.70;72.90;;;;;;10826424;32;20031;-71
2022/09/22 21:32:08;;;;;;;6.22;4.47;;;16.60;73.00;;;;;;10829313;32;20023;-71
2022/09/22 21:38:10;;;;;;;5.32;4.15;;;16.60;73.20;;;;;;10830344;32;20059;-71
2022/09/22 21:44:16;;;;;;;8.90;5.95;;;16.70;73.20;;;;;;10830357;32;20348;-71
2022/09/22 21:50:18;;;;;;;6.43;4.30;;;16.70;73.20;;;;;;10830154;32;20401;-71
2022/09/22 21:56:24;;;;;;;7.32;4.45;;;16.60;73.20;;;;;;10816759;32;20074;-71
2022/09/22 22:02:26;;;;;;;9.00;5.90;;;16.50;73.50;;;;;;10829707;32;20054;-71
2022/09/22 22:09:05;;;;;;;5.53;3.83;;;16.50;73.50;;;;;;10829863;33;20016;-71
2022/09/22 22:15:08;;;;;;;11.40;5.75;;;16.50;73.50;;;;;;10769329;27;20036;-71
2022/09/22 22:21:41;;;;;;;7.18;3.95;;;16.40;73.70;;;;;;10788783;33;20055;-71
2022/09/22 22:27:44;;;;;;;4.22;3.45;;;16.40;73.70;;;;;;10788463;33;20028;-71
2022/09/22 22:33:47;;;;;;;6.72;4.32;;;16.40;73.80;;;;;;10788338;33;20028;-71
2022/09/22 22:39:49;;;;;;;5.55;3.97;;;16.30;73.90;;;;;;10793637;33;20064;-71
2022/09/22 22:45:52;;;;;;;8.90;5.12;;;16.30;74.20;;;;;;10795228;33;20059;-71
2022/09/22 22:51:54;;;;;;;12.00;5.65;;;16.20;74.40;;;;;;10840468;32;20050;-71
2022/09/22 22:57:56;;;;;;;5.03;3.55;;;16.20;74.50;;;;;;10873020;32;20024;-71
2022/09/22 23:04:02;;;;;;;7.53;4.57;;;16.20;74.80;;;;;;10871830;32;20028;-71
2022/09/22 23:10:07;;;;;;;6.50;4.82;;;16.20;74.80;;;;;;10859272;32;20396;-71
2022/09/22 23:16:11;;;;;;;5.28;4.07;;;16.20;74.80;;;;;;10868225;32;20327;-71
2022/09/22 23:22:13;;;;;;;5.87;4.05;;;16.00;74.80;;;;;;10868035;32;20031;-71
2022/09/22 23:28:15;;;;;;;7.95;4.28;;;15.90;75.00;;;;;;10872012;32;20023;-71
2022/09/22 23:34:18;;;;;;;5.53;3.70;;;15.90;75.10;;;;;;10871677;32;20324;-71
2022/09/22 23:40:20;;;;;;;6.18;4.00;;;15.90;75.20;;;;;;10870722;32;20046;-70
2022/09/22 23:46:23;;;;;;;6.45;4.12;;;15.90;75.00;;;;;;10871248;32;20336;-71
2022/09/22 23:52:25;;;;;;;5.40;4.22;;;15.80;75.20;;;;;;10870250;32;20016;-71
2022/09/22 23:58:27;;;;;;;9.25;5.70;;;15.80;75.30;;;;;;10870951;32;20054;-71
